createdAt,value
2019-02-17T00:00:02.015Z,1019.13
2019-02-17T00:01:02.007Z,1019.16
2019-02-17T00:02:02.030Z,1019.19
2019-02-17T00:03:01.983Z,1019.17
2019-02-17T00:04:01.971Z,1019.15
2019-02-17T00:05:01.963Z,1019.22
2019-02-17T00:06:01.950Z,1019.13
2019-02-17T00:07:01.939Z,1019.15
2019-02-17T00:08:01.966Z,1019.14
2019-02-17T00:09:01.919Z,1019.15
2019-02-17T00:10:01.907Z,1019.20
2019-02-17T00:11:01.919Z,1019.20
2019-02-17T00:12:01.947Z,1019.16
2019-02-17T00:13:01.876Z,1019.16
2019-02-17T00:14:01.903Z,1019.19
2019-02-17T00:15:01.855Z,1019.18
2019-02-17T00:16:01.845Z,1019.18
2019-02-17T00:17:01.835Z,1019.18
2019-02-17T00:18:01.823Z,1019.19
2019-02-17T00:19:01.816Z,1019.16
2019-02-17T00:20:01.833Z,1019.17
2019-02-17T00:21:01.793Z,1019.19
2019-02-17T00:22:01.781Z,1019.19
2019-02-17T00:23:01.772Z,1019.20
2019-02-17T00:24:01.761Z,1019.17
2019-02-17T00:25:01.788Z,1019.17
2019-02-17T00:26:01.741Z,1019.18
2019-02-17T00:27:01.731Z,1019.19
2019-02-17T00:28:01.716Z,1019.17
2019-02-17T00:29:01.710Z,1019.23
2019-02-17T00:30:06.926Z,1019.17
2019-02-17T00:31:04.324Z,1019.17
2019-02-17T00:32:01.678Z,1019.16
2019-02-17T00:33:01.664Z,1019.15
2019-02-17T00:34:01.657Z,1019.12
2019-02-17T00:35:01.646Z,1019.11
2019-02-17T00:36:01.665Z,1019.10
2019-02-17T00:37:22.633Z,1019.11
2019-02-17T00:38:06.679Z,1019.11
2019-02-17T00:39:07.965Z,1019.15
2019-02-17T00:40:01.592Z,1019.16
2019-02-17T00:41:01.606Z,1019.12
2019-02-17T00:42:01.570Z,1019.11
2019-02-17T00:43:01.564Z,1019.15
2019-02-17T00:44:01.555Z,1019.16
2019-02-17T00:45:01.540Z,1019.14
2019-02-17T00:46:01.565Z,1019.14
2019-02-17T00:47:01.520Z,1019.10
2019-02-17T00:48:01.513Z,1019.07
2019-02-17T00:49:01.498Z,1019.14
2019-02-17T00:50:01.486Z,1019.10
2019-02-17T00:51:01.512Z,1019.13
2019-02-17T00:52:01.466Z,1019.13
2019-02-17T00:53:01.457Z,1019.12
2019-02-17T00:54:01.441Z,1019.12
2019-02-17T00:55:01.431Z,1019.15
2019-02-17T00:56:01.420Z,1019.16
2019-02-17T00:57:01.448Z,1019.16
2019-02-17T00:58:01.399Z,1019.19
2019-02-17T00:59:09.572Z,1019.17
2019-02-17T01:00:02.375Z,1019.15
2019-02-17T01:01:01.369Z,1019.15
2019-02-17T01:02:01.359Z,1019.18
2019-02-17T01:03:01.393Z,1019.16
2019-02-17T01:04:01.340Z,1019.17
2019-02-17T01:05:01.326Z,1019.17
2019-02-17T01:06:01.316Z,1019.20
2019-02-17T01:07:01.302Z,1019.17
2019-02-17T01:08:01.291Z,1019.15
2019-02-17T01:09:01.933Z,1019.15
2019-02-17T01:10:01.273Z,1019.20
2019-02-17T01:11:01.262Z,1019.17
2019-02-17T01:12:01.251Z,1019.18
2019-02-17T01:13:01.238Z,1019.18
2019-02-17T01:14:01.228Z,1019.21
2019-02-17T01:15:01.254Z,1019.16
2019-02-17T01:16:01.206Z,1019.26
2019-02-17T01:17:01.194Z,1019.21
2019-02-17T01:18:01.190Z,1019.21
2019-02-17T01:19:01.173Z,1019.24
2019-02-17T01:20:01.164Z,1019.23
2019-02-17T01:21:01.189Z,1019.25
2019-02-17T01:22:01.140Z,1019.26
2019-02-17T01:23:01.130Z,1019.27
2019-02-17T01:24:01.141Z,1019.25
2019-02-17T01:25:01.113Z,1019.26
2019-02-17T01:26:01.095Z,1019.23
2019-02-17T01:27:01.112Z,1019.24
2019-02-17T01:28:01.075Z,1019.22
2019-02-17T01:29:01.068Z,1019.29
2019-02-17T01:30:01.051Z,1019.29
2019-02-17T01:31:01.042Z,1019.33
2019-02-17T01:32:01.066Z,1019.22
2019-02-17T01:33:01.020Z,1019.22
2019-02-17T01:34:01.007Z,1019.21
2019-02-17T01:35:01.001Z,1019.25
2019-02-17T01:36:00.986Z,1019.22
2019-02-17T01:37:00.975Z,1019.29
2019-02-17T01:38:01.004Z,1019.27
2019-02-17T01:39:00.953Z,1019.31
2019-02-17T01:40:00.942Z,1019.33
2019-02-17T01:41:00.932Z,1019.31
2019-02-17T01:42:00.921Z,1019.32
2019-02-17T01:43:00.908Z,1019.29
2019-02-17T01:44:00.923Z,1019.30
2019-02-17T01:45:00.889Z,1019.31
2019-02-17T01:46:00.876Z,1019.30
2019-02-17T01:47:00.868Z,1019.29
2019-02-17T01:48:00.862Z,1019.24
2019-02-17T01:49:00.883Z,1019.30
2019-02-17T01:50:00.835Z,1019.28
2019-02-17T01:51:00.823Z,1019.25
2019-02-17T01:52:00.812Z,1019.25
2019-02-17T01:53:00.802Z,1019.25
2019-02-17T01:54:00.793Z,1019.23
2019-02-17T01:55:00.820Z,1019.23
2019-02-17T01:56:00.770Z,1019.24
2019-02-17T01:57:00.762Z,1019.27
2019-02-17T01:58:00.752Z,1019.23
2019-02-17T01:59:00.736Z,1019.17
2019-02-17T02:00:00.726Z,1019.21
2019-02-17T02:01:00.741Z,1019.20
2019-02-17T02:02:00.723Z,1019.23
2019-02-17T02:03:00.694Z,1019.23
2019-02-17T02:04:00.681Z,1019.19
2019-02-17T02:05:00.672Z,1019.21
2019-02-17T02:06:00.693Z,1019.20
2019-02-17T02:07:06.873Z,1019.21
2019-02-17T02:08:00.639Z,1019.17
2019-02-17T02:09:00.630Z,1019.15
2019-02-17T02:10:00.702Z,1019.14
2019-02-17T02:11:00.631Z,1019.11
2019-02-17T02:12:00.610Z,1019.13
2019-02-17T02:13:00.594Z,1019.10
2019-02-17T02:14:00.582Z,1019.07
2019-02-17T02:15:00.565Z,1019.13
2019-02-17T02:16:00.579Z,1019.10
2019-02-17T02:17:00.544Z,1019.12
2019-02-17T02:18:00.534Z,1019.08
2019-02-17T02:19:00.522Z,1019.15
2019-02-17T02:20:00.511Z,1019.10
2019-02-17T02:21:00.527Z,1019.11
2019-02-17T02:22:00.490Z,1019.12
2019-02-17T02:23:00.480Z,1019.11
2019-02-17T02:24:00.473Z,1019.16
2019-02-17T02:25:00.462Z,1019.15
2019-02-17T02:26:00.480Z,1019.13
2019-02-17T02:27:00.438Z,1019.12
2019-02-17T02:28:00.429Z,1019.12
2019-02-17T02:29:00.418Z,1019.10
2019-02-17T02:30:00.410Z,1019.17
2019-02-17T02:31:00.424Z,1019.16
2019-02-17T02:32:00.387Z,1019.16
2019-02-17T02:33:00.375Z,1019.18
2019-02-17T02:34:00.365Z,1019.16
2019-02-17T02:35:00.354Z,1019.12
2019-02-17T02:36:00.371Z,1019.18
2019-02-17T02:37:00.405Z,1019.17
2019-02-17T02:38:00.323Z,1019.14
2019-02-17T02:39:00.310Z,1019.18
2019-02-17T02:40:00.300Z,1019.17
2019-02-17T02:41:00.329Z,1019.17
2019-02-17T02:42:00.284Z,1019.14
2019-02-17T02:43:00.270Z,1019.14
2019-02-17T02:44:00.258Z,1019.16
2019-02-17T02:45:00.410Z,1019.14
2019-02-17T02:46:02.838Z,1019.13
2019-02-17T02:47:00.250Z,1019.17
2019-02-17T02:48:00.218Z,1019.16
2019-02-17T02:49:00.206Z,1019.14
2019-02-17T02:50:00.229Z,1019.14
2019-02-17T02:51:00.186Z,1019.14
2019-02-17T02:52:00.206Z,1019.17
2019-02-17T02:53:00.165Z,1019.13
2019-02-17T02:54:00.157Z,1019.19
2019-02-17T02:55:00.323Z,1019.19
2019-02-17T02:56:00.133Z,1019.19
2019-02-17T02:57:00.160Z,1019.17
2019-02-17T02:58:00.112Z,1019.21
2019-02-17T02:59:00.102Z,1019.22
2019-02-17T03:00:00.158Z,1019.20
2019-02-17T03:01:00.082Z,1019.21
2019-02-17T03:02:00.090Z,1019.19
2019-02-17T03:03:00.085Z,1019.18
2019-02-17T03:04:00.050Z,1019.14
2019-02-17T03:05:00.041Z,1019.18
2019-02-17T03:06:00.028Z,1019.17
2019-02-17T03:07:00.017Z,1019.15
2019-02-17T03:08:00.044Z,1019.17
2019-02-17T03:08:59.998Z,1019.21
2019-02-17T03:09:59.994Z,1019.20
2019-02-17T03:10:59.979Z,1019.26
2019-02-17T03:11:59.967Z,1019.27
2019-02-17T03:12:59.959Z,1019.27
2019-02-17T03:13:59.980Z,1019.27
2019-02-17T03:14:59.932Z,1019.28
2019-02-17T03:15:59.924Z,1019.26
2019-02-17T03:17:00.797Z,1019.29
2019-02-17T03:17:59.905Z,1019.27
2019-02-17T03:18:59.890Z,1019.29
2019-02-17T03:19:59.909Z,1019.32
2019-02-17T03:20:59.870Z,1019.30
2019-02-17T03:21:59.859Z,1019.31
2019-02-17T03:22:59.855Z,1019.30
2019-02-17T03:23:59.840Z,1019.32
2019-02-17T03:24:59.865Z,1019.35
2019-02-17T03:25:59.819Z,1019.36
2019-02-17T03:26:59.807Z,1019.35
2019-02-17T03:27:59.798Z,1019.37
2019-02-17T03:28:59.787Z,1019.32
2019-02-17T03:30:05.210Z,1019.37
2019-02-17T03:31:00.789Z,1019.35
2019-02-17T03:31:59.754Z,1019.37
2019-02-17T03:32:59.750Z,1019.38
2019-02-17T03:33:59.734Z,1019.33
2019-02-17T03:34:59.722Z,1019.36
2019-02-17T03:35:59.745Z,1019.36
2019-02-17T03:37:06.343Z,1019.35
2019-02-17T03:37:59.690Z,1019.41
2019-02-17T03:38:59.681Z,1019.36
2019-02-17T03:39:59.671Z,1019.37
2019-02-17T03:40:59.685Z,1019.35
2019-02-17T03:41:59.646Z,1019.38
2019-02-17T03:42:59.638Z,1019.35
2019-02-17T03:43:59.628Z,1019.35
2019-02-17T03:44:59.619Z,1019.33
2019-02-17T03:45:59.635Z,1019.31
2019-02-17T03:46:59.596Z,1019.35
2019-02-17T03:47:59.585Z,1019.34
2019-02-17T03:48:59.576Z,1019.31
2019-02-17T03:49:59.564Z,1019.30
2019-02-17T03:50:59.591Z,1019.35
2019-02-17T03:51:59.544Z,1019.32
2019-02-17T03:52:59.535Z,1019.31
2019-02-17T03:53:59.522Z,1019.36
2019-02-17T03:54:59.512Z,1019.34
2019-02-17T03:55:59.501Z,1019.33
2019-02-17T03:57:06.547Z,1019.36
2019-02-17T03:57:59.496Z,1019.35
2019-02-17T03:58:59.469Z,1019.41
2019-02-17T03:59:59.460Z,1019.37
2019-02-17T04:00:59.458Z,1019.38
2019-02-17T04:01:59.460Z,1019.43
2019-02-17T04:02:59.429Z,1019.42
2019-02-17T04:03:59.416Z,1019.43
2019-02-17T04:04:59.404Z,1019.43
2019-02-17T04:05:59.393Z,1019.45
2019-02-17T04:07:00.023Z,1019.44
2019-02-17T04:07:59.374Z,1019.42
2019-02-17T04:08:59.364Z,1019.42
2019-02-17T04:09:59.352Z,1019.43
2019-02-17T04:10:59.363Z,1019.41
2019-02-17T04:11:59.367Z,1019.40
2019-02-17T04:12:59.319Z,1019.39
2019-02-17T04:13:59.312Z,1019.40
2019-02-17T04:14:59.301Z,1019.41
2019-02-17T04:15:59.288Z,1019.41
2019-02-17T04:16:59.279Z,1019.40
2019-02-17T04:17:59.325Z,1019.37
2019-02-17T04:18:59.256Z,1019.35
2019-02-17T04:19:59.247Z,1019.39
2019-02-17T04:20:59.256Z,1019.31
2019-02-17T04:21:59.227Z,1019.37
2019-02-17T04:22:59.214Z,1019.42
2019-02-17T04:23:59.230Z,1019.39
2019-02-17T04:24:59.195Z,1019.38
2019-02-17T04:25:59.194Z,1019.40
2019-02-17T04:26:59.173Z,1019.36
2019-02-17T04:27:59.163Z,1019.36
2019-02-17T04:28:59.241Z,1019.38
2019-02-17T04:29:59.140Z,1019.36
2019-02-17T04:30:59.155Z,1019.37
2019-02-17T04:31:59.122Z,1019.36
2019-02-17T04:32:59.110Z,1019.37
2019-02-17T04:33:59.110Z,1019.33
2019-02-17T04:34:59.112Z,1019.33
2019-02-17T04:35:59.084Z,1019.38
2019-02-17T04:36:59.077Z,1019.38
2019-02-17T04:37:59.075Z,1019.39
2019-02-17T04:38:59.047Z,1019.36
2019-02-17T04:39:59.073Z,1019.37
2019-02-17T04:40:59.041Z,1019.40
2019-02-17T04:41:59.013Z,1019.39
2019-02-17T04:42:59.004Z,1019.35
2019-02-17T04:43:58.998Z,1019.37
2019-02-17T04:44:58.983Z,1019.40
2019-02-17T04:45:59.088Z,1019.34
2019-02-17T04:46:58.974Z,1019.31
2019-02-17T04:47:58.992Z,1019.29
2019-02-17T04:48:58.950Z,1019.30
2019-02-17T04:49:58.932Z,1019.29
2019-02-17T04:50:58.953Z,1019.27
2019-02-17T04:51:58.909Z,1019.31
2019-02-17T04:52:58.897Z,1019.25
2019-02-17T04:53:58.888Z,1019.23
2019-02-17T04:54:58.882Z,1019.23
2019-02-17T04:55:58.890Z,1019.20
2019-02-17T04:56:58.853Z,1019.21
2019-02-17T04:57:58.845Z,1019.26
2019-02-17T04:58:58.835Z,1019.22
2019-02-17T04:59:58.824Z,1019.20
2019-02-17T05:00:58.843Z,1019.17
2019-02-17T05:01:58.800Z,1019.16
2019-02-17T05:02:58.794Z,1019.17
2019-02-17T05:03:58.783Z,1019.12
2019-02-17T05:04:58.767Z,1019.15
2019-02-17T05:05:58.786Z,1019.13
2019-02-17T05:06:58.747Z,1019.16
2019-02-17T05:07:58.737Z,1019.11
2019-02-17T05:08:58.725Z,1019.09
2019-02-17T05:09:58.716Z,1019.12
2019-02-17T05:10:58.730Z,1019.16
2019-02-17T05:11:58.697Z,1019.13
2019-02-17T05:12:58.687Z,1019.19
2019-02-17T05:13:58.673Z,1019.20
2019-02-17T05:14:58.661Z,1019.19
2019-02-17T05:15:58.677Z,1019.20
2019-02-17T05:16:58.662Z,1019.22
2019-02-17T05:17:58.629Z,1019.25
2019-02-17T05:18:58.619Z,1019.25
2019-02-17T05:19:58.611Z,1019.27
2019-02-17T05:20:58.693Z,1019.29
2019-02-17T05:21:58.586Z,1019.25
2019-02-17T05:22:58.582Z,1019.26
2019-02-17T05:23:58.569Z,1019.27
2019-02-17T05:24:58.556Z,1019.24
2019-02-17T05:25:58.568Z,1019.26
2019-02-17T05:26:58.532Z,1019.26
2019-02-17T05:27:58.524Z,1019.26
2019-02-17T05:28:58.512Z,1019.30
2019-02-17T05:29:58.519Z,1019.26
2019-02-17T05:30:58.518Z,1019.27
2019-02-17T05:31:58.480Z,1019.29
2019-02-17T05:32:58.473Z,1019.29
2019-02-17T05:33:58.463Z,1019.28
2019-02-17T05:34:59.144Z,1019.29
2019-02-17T05:35:58.463Z,1019.28
2019-02-17T05:36:58.428Z,1019.32
2019-02-17T05:37:58.419Z,1019.37
2019-02-17T05:38:58.416Z,1019.39
2019-02-17T05:39:58.414Z,1019.40
2019-02-17T05:40:58.412Z,1019.40
2019-02-17T05:41:58.376Z,1019.40
2019-02-17T05:42:58.364Z,1019.31
2019-02-17T05:43:58.352Z,1019.38
2019-02-17T05:44:58.341Z,1019.42
2019-02-17T05:45:58.358Z,1019.36
2019-02-17T05:46:58.320Z,1019.44
2019-02-17T05:47:58.318Z,1019.36
2019-02-17T05:48:58.300Z,1019.40
2019-02-17T05:49:58.289Z,1019.38
2019-02-17T05:50:58.303Z,1019.32
2019-02-17T05:51:58.268Z,1019.36
2019-02-17T05:52:58.260Z,1019.33
2019-02-17T05:53:58.246Z,1019.33
2019-02-17T05:54:58.240Z,1019.29
2019-02-17T05:55:58.248Z,1019.33
2019-02-17T05:56:58.215Z,1019.34
2019-02-17T05:57:58.205Z,1019.40
2019-02-17T05:58:58.196Z,1019.40
2019-02-17T05:59:58.183Z,1019.42
2019-02-17T06:01:03.980Z,1019.42
2019-02-17T06:01:59.159Z,1019.45
2019-02-17T06:02:58.175Z,1019.39
2019-02-17T06:03:58.139Z,1019.37
2019-02-17T06:04:58.146Z,1019.39
2019-02-17T06:05:58.153Z,1019.46
2019-02-17T06:06:58.109Z,1019.45
2019-02-17T06:07:58.096Z,1019.44
2019-02-17T06:08:58.089Z,1019.46
2019-02-17T06:09:58.081Z,1019.46
2019-02-17T06:10:58.177Z,1019.46
2019-02-17T06:11:58.054Z,1019.42
2019-02-17T06:12:58.045Z,1019.44
2019-02-17T06:13:58.033Z,1019.46
2019-02-17T06:14:58.024Z,1019.48
2019-02-17T06:15:58.047Z,1019.42
2019-02-17T06:16:58.001Z,1019.48
2019-02-17T06:17:57.991Z,1019.45
2019-02-17T06:18:57.984Z,1019.50
2019-02-17T06:19:57.970Z,1019.45
2019-02-17T06:20:57.994Z,1019.50
2019-02-17T06:21:57.947Z,1019.49
2019-02-17T06:22:57.937Z,1019.54
2019-02-17T06:23:57.929Z,1019.51
2019-02-17T06:24:57.918Z,1019.51
2019-02-17T06:25:57.945Z,1019.51
2019-02-17T06:26:57.894Z,1019.55
2019-02-17T06:27:57.884Z,1019.56
2019-02-17T06:28:57.874Z,1019.54
2019-02-17T06:29:57.865Z,1019.59
2019-02-17T06:30:57.878Z,1019.55
2019-02-17T06:31:57.840Z,1019.57
2019-02-17T06:32:57.835Z,1019.61
2019-02-17T06:33:57.820Z,1019.63
2019-02-17T06:34:57.809Z,1019.64
2019-02-17T06:35:57.846Z,1019.65
2019-02-17T06:36:57.787Z,1019.63
2019-02-17T06:37:57.781Z,1019.68
2019-02-17T06:38:57.772Z,1019.64
2019-02-17T06:39:57.760Z,1019.68
2019-02-17T06:40:57.788Z,1019.70
2019-02-17T06:42:06.601Z,1019.75
2019-02-17T06:42:57.725Z,1019.73
2019-02-17T06:43:57.728Z,1019.76
2019-02-17T06:44:57.706Z,1019.75
2019-02-17T06:45:57.717Z,1019.79
2019-02-17T06:46:57.685Z,1019.77
2019-02-17T06:47:57.670Z,1019.76
2019-02-17T06:48:57.659Z,1019.78
2019-02-17T06:49:57.648Z,1019.77
2019-02-17T06:50:57.664Z,1019.74
2019-02-17T06:51:57.630Z,1019.73
2019-02-17T06:52:57.617Z,1019.74
2019-02-17T06:53:57.606Z,1019.72
2019-02-17T06:54:57.597Z,1019.69
2019-02-17T06:55:57.611Z,1019.75
2019-02-17T06:56:57.575Z,1019.75
2019-02-17T06:57:57.579Z,1019.73
2019-02-17T06:58:57.555Z,1019.77
2019-02-17T06:59:57.542Z,1019.76
2019-02-17T07:00:57.557Z,1019.77
2019-02-17T07:01:57.521Z,1019.74
2019-02-17T07:02:57.512Z,1019.76
2019-02-17T07:03:57.506Z,1019.71
2019-02-17T07:04:57.489Z,1019.68
2019-02-17T07:05:57.519Z,1019.72
2019-02-17T07:06:57.484Z,1019.78
2019-02-17T07:07:57.457Z,1019.75
2019-02-17T07:08:57.447Z,1019.73
2019-02-17T07:09:57.437Z,1019.76
2019-02-17T07:10:57.451Z,1019.76
2019-02-17T07:11:57.469Z,1019.76
2019-02-17T07:12:57.404Z,1019.77
2019-02-17T07:13:57.394Z,1019.78
2019-02-17T07:14:57.382Z,1019.76
2019-02-17T07:15:57.406Z,1019.71
2019-02-17T07:16:57.367Z,1019.69
2019-02-17T07:17:59.109Z,1019.71
2019-02-17T07:18:57.344Z,1019.66
2019-02-17T07:19:57.331Z,1019.66
2019-02-17T07:20:57.345Z,1019.67
2019-02-17T07:21:57.310Z,1019.66
2019-02-17T07:22:57.299Z,1019.64
2019-02-17T07:23:57.288Z,1019.64
2019-02-17T07:24:57.278Z,1019.69
2019-02-17T07:25:57.293Z,1019.72
2019-02-17T07:26:57.258Z,1019.72
2019-02-17T07:27:57.253Z,1019.71
2019-02-17T07:28:57.236Z,1019.76
2019-02-17T07:29:57.227Z,1019.74
2019-02-17T07:30:57.240Z,1019.72
2019-02-17T07:31:57.204Z,1019.73
2019-02-17T07:32:57.198Z,1019.74
2019-02-17T07:33:57.184Z,1019.76
2019-02-17T07:34:57.174Z,1019.75
2019-02-17T07:35:57.188Z,1019.80
2019-02-17T07:36:57.151Z,1019.78
2019-02-17T07:37:57.149Z,1019.82
2019-02-17T07:38:57.130Z,1019.86
2019-02-17T07:39:57.127Z,1019.86
2019-02-17T07:40:57.139Z,1019.84
2019-02-17T07:41:57.099Z,1019.85
2019-02-17T07:42:57.089Z,1019.84
2019-02-17T07:43:57.078Z,1019.84
2019-02-17T07:44:57.070Z,1019.86
2019-02-17T07:45:57.082Z,1019.82
2019-02-17T07:46:57.051Z,1019.79
2019-02-17T07:47:57.045Z,1019.85
2019-02-17T07:48:57.025Z,1019.83
2019-02-17T07:49:57.017Z,1019.86
2019-02-17T07:50:57.044Z,1019.84
2019-02-17T07:51:56.997Z,1019.87
2019-02-17T07:52:56.983Z,1019.89
2019-02-17T07:53:56.973Z,1019.88
2019-02-17T07:54:56.963Z,1019.89
2019-02-17T07:55:56.979Z,1019.90
2019-02-17T07:56:56.939Z,1019.85
2019-02-17T07:57:56.935Z,1019.90
2019-02-17T07:58:56.939Z,1019.87
2019-02-17T07:59:56.908Z,1019.91
2019-02-17T08:00:56.923Z,1019.88
2019-02-17T08:01:56.914Z,1019.92
2019-02-17T08:02:56.877Z,1019.90
2019-02-17T08:03:56.865Z,1019.86
2019-02-17T08:04:56.855Z,1019.89
2019-02-17T08:05:56.868Z,1019.93
2019-02-17T08:06:56.830Z,1019.94
2019-02-17T08:07:56.821Z,1019.92
2019-02-17T08:08:56.809Z,1019.95
2019-02-17T08:09:56.799Z,1019.95
2019-02-17T08:11:03.695Z,1019.87
2019-02-17T08:11:57.775Z,1019.92
2019-02-17T08:12:56.765Z,1019.98
2019-02-17T08:13:56.762Z,1019.90
2019-02-17T08:14:56.746Z,1019.93
2019-02-17T08:15:56.757Z,1019.94
2019-02-17T08:16:56.722Z,1019.93
2019-02-17T08:17:56.712Z,1019.90
2019-02-17T08:18:56.700Z,1019.86
2019-02-17T08:19:56.689Z,1019.89
2019-02-17T08:20:56.704Z,1019.90
2019-02-17T08:21:56.668Z,1019.87
2019-02-17T08:22:56.656Z,1019.86
2019-02-17T08:23:56.648Z,1019.89
2019-02-17T08:24:56.637Z,1019.88
2019-02-17T08:25:56.649Z,1019.90
2019-02-17T08:26:56.625Z,1019.90
2019-02-17T08:27:56.603Z,1019.88
2019-02-17T08:28:56.594Z,1019.91
2019-02-17T08:29:56.585Z,1019.93
2019-02-17T08:30:56.595Z,1019.93
2019-02-17T08:31:56.560Z,1019.98
2019-02-17T08:32:56.549Z,1019.97
2019-02-17T08:33:56.542Z,1020.03
2019-02-17T08:34:56.529Z,1020.05
2019-02-17T08:35:56.545Z,1020.03
2019-02-17T08:36:56.508Z,1020.05
2019-02-17T08:37:56.498Z,1020.05
2019-02-17T08:38:56.487Z,1020.06
2019-02-17T08:39:56.476Z,1020.03
2019-02-17T08:40:56.493Z,1020.04
2019-02-17T08:41:56.455Z,1020.03
2019-02-17T08:42:56.457Z,1020.02
2019-02-17T08:43:56.434Z,1019.97
2019-02-17T08:44:56.422Z,1019.94
2019-02-17T08:45:56.437Z,1019.96
2019-02-17T08:46:56.400Z,1019.93
2019-02-17T08:47:56.390Z,1019.95
2019-02-17T08:48:56.381Z,1019.93
2019-02-17T08:49:56.367Z,1019.90
2019-02-17T08:50:56.381Z,1019.88
2019-02-17T08:51:56.346Z,1019.89
2019-02-17T08:52:56.337Z,1019.87
2019-02-17T08:53:56.325Z,1019.83
2019-02-17T08:54:56.313Z,1019.87
2019-02-17T08:55:56.324Z,1019.91
2019-02-17T08:56:56.291Z,1019.91
2019-02-17T08:57:56.282Z,1019.92
2019-02-17T08:58:56.270Z,1019.93
2019-02-17T08:59:56.260Z,1019.96
2019-02-17T09:00:56.274Z,1019.91
2019-02-17T09:02:05.609Z,1019.89
2019-02-17T09:02:57.227Z,1019.88
2019-02-17T09:03:56.218Z,1019.87
2019-02-17T09:04:56.205Z,1019.85
2019-02-17T09:05:56.227Z,1019.87
2019-02-17T09:06:56.184Z,1019.90
2019-02-17T09:07:56.203Z,1019.92
2019-02-17T09:08:56.166Z,1019.89
2019-02-17T09:09:56.154Z,1019.88
2019-02-17T09:10:56.167Z,1019.88
2019-02-17T09:11:56.134Z,1019.91
2019-02-17T09:12:56.122Z,1019.93
2019-02-17T09:13:56.111Z,1019.88
2019-02-17T09:14:56.101Z,1019.89
2019-02-17T09:15:56.112Z,1019.86
2019-02-17T09:16:56.078Z,1019.85
2019-02-17T09:17:56.067Z,1019.85
2019-02-17T09:18:56.058Z,1019.83
2019-02-17T09:19:56.047Z,1019.82
2019-02-17T09:20:56.063Z,1019.85
2019-02-17T09:21:56.029Z,1019.80
2019-02-17T09:22:56.016Z,1019.82
2019-02-17T09:23:56.002Z,1019.84
2019-02-17T09:24:55.999Z,1019.81
2019-02-17T09:25:56.012Z,1019.79
2019-02-17T09:26:55.975Z,1019.78
2019-02-17T09:27:55.964Z,1019.82
2019-02-17T09:28:55.950Z,1019.81
2019-02-17T09:29:55.938Z,1019.81
2019-02-17T09:30:55.954Z,1019.82
2019-02-17T09:31:55.919Z,1019.76
2019-02-17T09:32:55.909Z,1019.75
2019-02-17T09:33:55.896Z,1019.74
2019-02-17T09:34:55.884Z,1019.73
2019-02-17T09:35:55.899Z,1019.67
2019-02-17T09:36:55.865Z,1019.65
2019-02-17T09:37:55.852Z,1019.62
2019-02-17T09:38:55.841Z,1019.64
2019-02-17T09:39:55.830Z,1019.62
2019-02-17T09:40:55.846Z,1019.62
2019-02-17T09:41:55.808Z,1019.65
2019-02-17T09:42:55.801Z,1019.66
2019-02-17T09:43:55.789Z,1019.70
2019-02-17T09:44:55.788Z,1019.68
2019-02-17T09:45:55.790Z,1019.70
2019-02-17T09:46:55.759Z,1019.70
2019-02-17T09:47:55.743Z,1019.68
2019-02-17T09:48:55.897Z,1019.70
2019-02-17T09:49:55.743Z,1019.65
2019-02-17T09:50:55.735Z,1019.69
2019-02-17T09:51:55.701Z,1019.66
2019-02-17T09:52:55.691Z,1019.62
2019-02-17T09:53:55.681Z,1019.67
2019-02-17T09:54:55.669Z,1019.63
2019-02-17T09:55:55.683Z,1019.63
2019-02-17T09:56:55.648Z,1019.61
2019-02-17T09:57:55.637Z,1019.60
2019-02-17T09:58:55.624Z,1019.60
2019-02-17T09:59:55.614Z,1019.62
2019-02-17T10:00:55.630Z,1019.61
2019-02-17T10:01:55.594Z,1019.58
2019-02-17T10:02:55.584Z,1019.60
2019-02-17T10:03:55.573Z,1019.58
2019-02-17T10:04:55.560Z,1019.60
2019-02-17T10:05:55.572Z,1019.55
2019-02-17T10:06:55.544Z,1019.54
2019-02-17T10:07:55.526Z,1019.57
2019-02-17T10:08:55.516Z,1019.53
2019-02-17T10:09:55.507Z,1019.56
2019-02-17T10:10:55.520Z,1019.60
2019-02-17T10:11:55.487Z,1019.59
2019-02-17T10:12:55.473Z,1019.56
2019-02-17T10:13:55.466Z,1019.67
2019-02-17T10:14:55.454Z,1019.64
2019-02-17T10:15:55.471Z,1019.63
2019-02-17T10:16:55.431Z,1019.64
2019-02-17T10:17:55.420Z,1019.63
2019-02-17T10:18:55.411Z,1019.66
2019-02-17T10:19:55.399Z,1019.61
2019-02-17T10:20:55.416Z,1019.61
2019-02-17T10:21:55.379Z,1019.62
2019-02-17T10:22:55.372Z,1019.59
2019-02-17T10:23:55.358Z,1019.59
2019-02-17T10:24:55.345Z,1019.59
2019-02-17T10:25:56.594Z,1019.58
2019-02-17T10:26:55.327Z,1019.58
2019-02-17T10:27:55.314Z,1019.54
2019-02-17T10:28:55.303Z,1019.51
2019-02-17T10:29:55.295Z,1019.51
2019-02-17T10:30:55.308Z,1019.50
2019-02-17T10:31:55.275Z,1019.51
2019-02-17T10:32:55.267Z,1019.52
2019-02-17T10:33:55.250Z,1019.51
2019-02-17T10:34:55.241Z,1019.49
2019-02-17T10:36:16.268Z,1019.52
2019-02-17T10:36:55.272Z,1019.53
2019-02-17T10:37:55.208Z,1019.49
2019-02-17T10:38:55.193Z,1019.43
2019-02-17T10:39:55.183Z,1019.46
2019-02-17T10:40:55.196Z,1019.45
2019-02-17T10:41:55.164Z,1019.41
2019-02-17T10:42:55.148Z,1019.41
2019-02-17T10:43:55.137Z,1019.35
2019-02-17T10:44:55.126Z,1019.36
2019-02-17T10:45:55.140Z,1019.31
2019-02-17T10:46:55.193Z,1019.34
2019-02-17T10:47:55.097Z,1019.37
2019-02-17T10:48:55.082Z,1019.31
2019-02-17T10:49:55.072Z,1019.29
2019-02-17T10:50:55.152Z,1019.24
2019-02-17T10:51:55.081Z,1019.25
2019-02-17T10:52:55.042Z,1019.24
2019-02-17T10:53:55.031Z,1019.23
2019-02-17T10:54:55.019Z,1019.22
2019-02-17T10:55:55.048Z,1019.20
2019-02-17T10:56:54.997Z,1019.16
2019-02-17T10:57:54.992Z,1019.12
2019-02-17T10:58:54.981Z,1019.14
2019-02-17T10:59:56.026Z,1019.11
2019-02-17T11:00:54.978Z,1019.11
2019-02-17T11:01:54.961Z,1019.14
2019-02-17T11:02:54.941Z,1019.13
2019-02-17T11:03:54.926Z,1019.15
2019-02-17T11:04:54.910Z,1019.15
2019-02-17T11:05:54.926Z,1019.08
2019-02-17T11:06:54.892Z,1019.11
2019-02-17T11:07:54.879Z,1019.10
2019-02-17T11:08:54.867Z,1019.11
2019-02-17T11:09:54.856Z,1019.10
2019-02-17T11:10:54.873Z,1019.03
2019-02-17T11:11:54.836Z,1019.06
2019-02-17T11:12:54.827Z,1019.06
2019-02-17T11:13:54.814Z,1019.00
2019-02-17T11:14:54.803Z,1019.02
2019-02-17T11:15:54.822Z,1019.05
2019-02-17T11:16:54.780Z,1019.02
2019-02-17T11:17:54.768Z,1018.95
2019-02-17T11:18:54.759Z,1019.00
2019-02-17T11:19:54.748Z,1018.95
2019-02-17T11:20:54.760Z,1018.97
2019-02-17T11:21:54.728Z,1018.93
2019-02-17T11:22:54.715Z,1018.94
2019-02-17T11:23:54.708Z,1018.91
2019-02-17T11:24:54.695Z,1018.86
2019-02-17T11:25:54.710Z,1018.87
2019-02-17T11:26:54.672Z,1018.90
2019-02-17T11:27:54.661Z,1018.86
2019-02-17T11:28:54.651Z,1018.80
2019-02-17T11:29:54.641Z,1018.77
2019-02-17T11:30:54.666Z,1018.77
2019-02-17T11:31:54.622Z,1018.80
2019-02-17T11:32:57.861Z,1018.74
2019-02-17T11:33:54.612Z,1018.76
2019-02-17T11:34:54.586Z,1018.76
2019-02-17T11:35:54.576Z,1018.79
2019-02-17T11:36:54.602Z,1018.79
2019-02-17T11:37:54.554Z,1018.73
2019-02-17T11:38:54.545Z,1018.72
2019-02-17T11:39:54.534Z,1018.73
2019-02-17T11:40:54.521Z,1018.68
2019-02-17T11:41:54.529Z,1018.69
2019-02-17T11:42:54.537Z,1018.72
2019-02-17T11:43:54.489Z,1018.66
2019-02-17T11:44:54.479Z,1018.67
2019-02-17T11:45:54.468Z,1018.70
2019-02-17T11:46:54.459Z,1018.76
2019-02-17T11:47:54.569Z,1018.71
2019-02-17T11:48:54.472Z,1018.75
2019-02-17T11:49:54.428Z,1018.76
2019-02-17T11:50:54.415Z,1018.72
2019-02-17T11:51:54.417Z,1018.77
2019-02-17T11:52:54.393Z,1018.74
2019-02-17T11:53:54.383Z,1018.73
2019-02-17T11:54:54.409Z,1018.72
2019-02-17T11:55:54.363Z,1018.71
2019-02-17T11:56:54.351Z,1018.68
2019-02-17T11:57:54.360Z,1018.69
2019-02-17T11:58:54.329Z,1018.65
2019-02-17T11:59:54.318Z,1018.62
2019-02-17T12:00:54.346Z,1018.65
2019-02-17T12:01:54.295Z,1018.60
2019-02-17T12:02:54.287Z,1018.60
2019-02-17T12:03:54.275Z,1018.57
2019-02-17T12:04:54.265Z,1018.59